Terminal Aerodrome Forecast
Issued by NWS

Home | Current Version | Previous Version | Text Only | Print | Product List | Glossary On
Versions: 1 2 3 4 5 6 7 8 9 10 11 12 13 14 15 16 17 18
000
FTUS44 KLZK 310000 AAA
TAFPBF
TAF AMD
KPBF 310004Z 3100/3124 14005KT P6SM VCSH SCT025 BKN060
      TEMPO 3100/3104 5SM -RA BR BKN020
     FM310400 20004KT 5SM BR VCSH SCT007 OVC020
      TEMPO 3109/3113 2SM BR BKN007
     FM311500 21007KT P6SM SCT015 BKN025
     FM311800 20009KT P6SM SCT035 BKN250=

USA.gov is the U.S. government's official web portal to all federal, state and local government web resources and services.